CYBW/YBW METAR and TAF weather

Enter ICAO airport designator
Station Type Date Time Source
CYBW METAR 2019/08/19 23:00 UTC NOAA

CYBW 192300Z AUTO 13004KT 070V150 9SM FEW048 18/07 A3000 RMK SLP170 DENSITY ALT 5100FT


Station Type Date Time Source
CYBW Decoded METAR 2019/08/19 23:00 UTC NOAA

Calgary / Springbank, Canada (CYBW) 51-06N 114-22W
Aug 19, 2019 - 07:00 PM EDT / 2019.08.19 2300 UTC
Wind: from the SE (130 degrees) at 5 MPH (4 KT) (direction variable):0
Visibility: 9 mile(s):0
Sky conditions: mostly clear
Temperature: 64 F (18 C)
Dew Point: 44 F (7 C)
Relative Humidity: 48%
Pressure (altimeter): 30 in. Hg (1015 hPa)
ob: CYBW 192300Z AUTO 13004KT 070V150 9SM FEW048 18/07 A3000 RMK SLP170 DENSITY ALT 5100FT
cycle: 23

Station Type Date Time Source
CYBW TAF 2019/08/19 20:24 UTC NOAA

TAF
AMD TAF
AMD CYBW 192023Z 1920/2004 06006KT P6SM SKC
FM192300 06006KT P6SM SCT040
TEMPO 1923/2004 BKN030
BECMG 2001/2003 VRB03KT
RMK FCST BASED ON AUTO OBS. NXT FCST BY 200000Z

Example: see airport list